sensor_id;sensor_type;location;lat;lon;timestamp;pressure;altitude;pressure_sealevel;temperature;humidity
77023;BME280;65952;51.440;-2.054;2023-06-10T00:01:00;100045.06;;;16.00;69.90
77023;BME280;65952;51.440;-2.054;2023-06-10T00:03:26;100045.03;;;15.80;70.64
77023;BME280;65952;51.440;-2.054;2023-06-10T00:05:51;100044.25;;;15.86;70.10
77023;BME280;65952;51.440;-2.054;2023-06-10T00:08:17;100047.16;;;15.84;70.28
77023;BME280;65952;51.440;-2.054;2023-06-10T00:10:44;100041.50;;;15.66;70.71
77023;BME280;65952;51.440;-2.054;2023-06-10T00:13:10;100039.44;;;15.68;70.50
77023;BME280;65952;51.440;-2.054;2023-06-10T00:15:37;100041.72;;;15.64;70.55
77023;BME280;65952;51.440;-2.054;2023-06-10T00:18:03;100038.81;;;15.59;70.89
77023;BME280;65952;51.440;-2.054;2023-06-10T00:20:29;100043.59;;;15.50;71.05
77023;BME280;65952;51.440;-2.054;2023-06-10T00:22:56;100040.69;;;15.45;71.35
77023;BME280;65952;51.440;-2.054;2023-06-10T00:25:22;100032.34;;;15.40;71.56
77023;BME280;65952;51.440;-2.054;2023-06-10T00:27:48;100038.56;;;15.20;72.07
77023;BME280;65952;51.440;-2.054;2023-06-10T00:30:13;100038.94;;;14.97;73.32
77023;BME280;65952;51.440;-2.054;2023-06-10T00:32:39;100035.16;;;14.91;73.14
77023;BME280;65952;51.440;-2.054;2023-06-10T00:35:05;100025.03;;;15.07;72.49
77023;BME280;65952;51.440;-2.054;2023-06-10T00:37:32;100031.81;;;14.83;73.33
77023;BME280;65952;51.440;-2.054;2023-06-10T00:40:01;100021.66;;;14.85;73.21
77023;BME280;65952;51.440;-2.054;2023-06-10T00:42:27;100028.75;;;14.51;74.64
77023;BME280;65952;51.440;-2.054;2023-06-10T00:44:54;100021.94;;;14.61;74.40
77023;BME280;65952;51.440;-2.054;2023-06-10T00:47:20;100029.25;;;14.68;74.38
77023;BME280;65952;51.440;-2.054;2023-06-10T00:49:47;100014.84;;;14.54;74.63
77023;BME280;65952;51.440;-2.054;2023-06-10T00:52:14;100012.56;;;14.57;74.59
77023;BME280;65952;51.440;-2.054;2023-06-10T00:54:41;100009.56;;;14.39;75.12
77023;BME280;65952;51.440;-2.054;2023-06-10T00:57:06;100013.50;;;14.29;75.69
77023;BME280;65952;51.440;-2.054;2023-06-10T00:59:32;100012.47;;;14.37;75.35
77023;BME280;65952;51.440;-2.054;2023-06-10T01:01:58;100014.97;;;14.39;75.22
77023;BME280;65952;51.440;-2.054;2023-06-10T01:04:24;100013.94;;;14.40;75.05
77023;BME280;65952;51.440;-2.054;2023-06-10T01:07:05;100013.69;;;14.28;75.70
77023;BME280;65952;51.440;-2.054;2023-06-10T01:14:59;100005.50;;;14.08;76.83
77023;BME280;65952;51.440;-2.054;2023-06-10T01:17:24;99999.19;;;14.36;75.57
77023;BME280;65952;51.440;-2.054;2023-06-10T01:19:59;100002.09;;;14.34;75.70
77023;BME280;65952;51.440;-2.054;2023-06-10T01:22:25;100009.56;;;14.32;76.07
77023;BME280;65952;51.440;-2.054;2023-06-10T01:24:54;99996.13;;;14.52;75.40
77023;BME280;65952;51.440;-2.054;2023-06-10T01:27:26;100002.78;;;14.50;75.47
77023;BME280;65952;51.440;-2.054;2023-06-10T01:30:11;100007.81;;;14.59;75.29
77023;BME280;65952;51.440;-2.054;2023-06-10T01:32:47;100006.19;;;14.65;74.77
77023;BME280;65952;51.440;-2.054;2023-06-10T01:35:14;100008.31;;;14.76;74.69
77023;BME280;65952;51.440;-2.054;2023-06-10T01:37:41;100015.22;;;14.86;74.25
77023;BME280;65952;51.440;-2.054;2023-06-10T01:40:08;100000.84;;;14.85;74.46
77023;BME280;65952;51.440;-2.054;2023-06-10T01:42:34;100006.88;;;14.87;74.23
77023;BME280;65952;51.440;-2.054;2023-06-10T01:45:00;100011.00;;;14.70;75.20
77023;BME280;65952;51.440;-2.054;2023-06-10T01:47:25;100006.88;;;14.81;74.70
77023;BME280;65952;51.440;-2.054;2023-06-10T01:49:51;100007.47;;;14.76;75.19
77023;BME280;65952;51.440;-2.054;2023-06-10T01:52:17;100012.06;;;14.75;74.96
77023;BME280;65952;51.440;-2.054;2023-06-10T01:54:42;100003.31;;;14.80;75.22
77023;BME280;65952;51.440;-2.054;2023-06-10T01:57:08;100011.31;;;14.46;76.67
77023;BME280;65952;51.440;-2.054;2023-06-10T01:59:33;100002.94;;;14.41;77.11
77023;BME280;65952;51.440;-2.054;2023-06-10T02:01:58;99995.28;;;14.45;77.07
77023;BME280;65952;51.440;-2.054;2023-06-10T02:04:24;99991.19;;;14.62;76.22
77023;BME280;65952;51.440;-2.054;2023-06-10T02:06:49;99990.09;;;14.50;76.88
77023;BME280;65952;51.440;-2.054;2023-06-10T02:09:16;99990.72;;;14.52;76.62
77023;BME280;65952;51.440;-2.054;2023-06-10T02:11:43;99987.97;;;14.39;77.28
77023;BME280;65952;51.440;-2.054;2023-06-10T02:14:09;99997.59;;;14.55;76.77
77023;BME280;65952;51.440;-2.054;2023-06-10T02:16:34;99987.00;;;14.46;77.10
77023;BME280;65952;51.440;-2.054;2023-06-10T02:18:59;99991.81;;;14.58;76.55
77023;BME280;65952;51.440;-2.054;2023-06-10T02:21:25;99999.84;;;14.38;77.24
77023;BME280;65952;51.440;-2.054;2023-06-10T02:23:51;99993.53;;;14.24;78.23
77023;BME280;65952;51.440;-2.054;2023-06-10T02:26:16;99993.84;;;14.49;77.39
77023;BME280;65952;51.440;-2.054;2023-06-10T02:28:44;99996.94;;;14.46;77.70
77023;BME280;65952;51.440;-2.054;2023-06-10T02:31:10;99994.00;;;14.34;77.69
77023;BME280;65952;51.440;-2.054;2023-06-10T02:33:35;100002.91;;;14.28;77.95
77023;BME280;65952;51.440;-2.054;2023-06-10T02:36:06;99995.81;;;14.27;77.94
77023;BME280;65952;51.440;-2.054;2023-06-10T02:38:32;99994.25;;;14.46;77.51
77023;BME280;65952;51.440;-2.054;2023-06-10T02:40:57;99998.84;;;14.52;77.27
77023;BME280;65952;51.440;-2.054;2023-06-10T02:43:22;100016.69;;;14.46;77.50
77023;BME280;65952;51.440;-2.054;2023-06-10T02:45:48;100005.53;;;14.63;76.76
77023;BME280;65952;51.440;-2.054;2023-06-10T02:48:13;100012.03;;;14.69;76.64
77023;BME280;65952;51.440;-2.054;2023-06-10T02:50:38;100017.31;;;14.49;77.41
77023;BME280;65952;51.440;-2.054;2023-06-10T02:53:05;100007.75;;;14.46;77.54
77023;BME280;65952;51.440;-2.054;2023-06-10T02:55:31;100015.72;;;14.61;76.62
77023;BME280;65952;51.440;-2.054;2023-06-10T02:57:57;100019.63;;;14.52;77.38
77023;BME280;65952;51.440;-2.054;2023-06-10T03:00:23;100011.75;;;14.63;76.71
77023;BME280;65952;51.440;-2.054;2023-06-10T03:02:48;100004.34;;;14.72;76.50
77023;BME280;65952;51.440;-2.054;2023-06-10T03:05:14;100018.69;;;14.73;76.30
77023;BME280;65952;51.440;-2.054;2023-06-10T03:07:40;100004.56;;;14.77;76.42
77023;BME280;65952;51.440;-2.054;2023-06-10T03:10:07;100013.81;;;14.61;76.81
77023;BME280;65952;51.440;-2.054;2023-06-10T03:12:32;100005.13;;;14.59;77.20
77023;BME280;65952;51.440;-2.054;2023-06-10T03:14:59;100002.06;;;14.76;76.40
77023;BME280;65952;51.440;-2.054;2023-06-10T03:17:25;100010.34;;;14.68;76.58
77023;BME280;65952;51.440;-2.054;2023-06-10T03:19:50;100010.19;;;14.76;76.21
77023;BME280;65952;51.440;-2.054;2023-06-10T03:22:16;100007.88;;;14.73;76.51
77023;BME280;65952;51.440;-2.054;2023-06-10T03:24:42;100009.66;;;14.52;77.24
77023;BME280;65952;51.440;-2.054;2023-06-10T03:27:09;100009.66;;;14.52;77.28
77023;BME280;65952;51.440;-2.054;2023-06-10T03:29:36;100009.88;;;14.57;77.13
77023;BME280;65952;51.440;-2.054;2023-06-10T03:32:02;99999.38;;;14.69;76.72
77023;BME280;65952;51.440;-2.054;2023-06-10T03:34:27;100004.69;;;14.62;77.09
77023;BME280;65952;51.440;-2.054;2023-06-10T03:36:53;100008.19;;;14.56;77.27
77023;BME280;65952;51.440;-2.054;2023-06-10T03:39:18;100006.94;;;14.45;77.59
77023;BME280;65952;51.440;-2.054;2023-06-10T03:41:43;100011.19;;;14.26;78.16
77023;BME280;65952;51.440;-2.054;2023-06-10T03:44:09;100009.28;;;14.20;78.84
77023;BME280;65952;51.440;-2.054;2023-06-10T03:46:34;100004.38;;;14.37;77.79
77023;BME280;65952;51.440;-2.054;2023-06-10T03:49:00;99998.31;;;14.28;78.26
77023;BME280;65952;51.440;-2.054;2023-06-10T03:51:29;100003.13;;;14.33;78.29
77023;BME280;65952;51.440;-2.054;2023-06-10T03:54:04;100001.00;;;14.22;78.37
77023;BME280;65952;51.440;-2.054;2023-06-10T03:56:31;100003.69;;;14.22;78.67
77023;BME280;65952;51.440;-2.054;2023-06-10T03:58:56;100003.56;;;14.37;77.82
77023;BME280;65952;51.440;-2.054;2023-06-10T04:01:22;99994.25;;;14.46;77.61
77023;BME280;65952;51.440;-2.054;2023-06-10T04:03:48;99998.84;;;14.59;76.91
77023;BME280;65952;51.440;-2.054;2023-06-10T04:06:16;99993.66;;;14.51;77.07
77023;BME280;65952;51.440;-2.054;2023-06-10T04:08:42;99986.13;;;14.46;77.29
77023;BME280;65952;51.440;-2.054;2023-06-10T04:11:08;99997.00;;;14.53;76.67
77023;BME280;65952;51.440;-2.054;2023-06-10T04:13:33;99995.97;;;14.60;76.50
77023;BME280;65952;51.440;-2.054;2023-06-10T04:15:59;99989.38;;;14.76;76.03
77023;BME280;65952;51.440;-2.054;2023-06-10T04:18:24;100002.63;;;14.58;76.24
77023;BME280;65952;51.440;-2.054;2023-06-10T04:20:50;100006.34;;;14.57;76.41
77023;BME280;65952;51.440;-2.054;2023-06-10T04:23:16;100000.09;;;14.56;76.23
77023;BME280;65952;51.440;-2.054;2023-06-10T04:25:41;100006.78;;;14.60;75.82
77023;BME280;65952;51.440;-2.054;2023-06-10T04:28:07;100010.28;;;14.54;76.12
77023;BME280;65952;51.440;-2.054;2023-06-10T04:30:32;100014.81;;;14.47;76.50
77023;BME280;65952;51.440;-2.054;2023-06-10T04:32:58;100010.09;;;14.62;76.02
77023;BME280;65952;51.440;-2.054;2023-06-10T04:35:24;100006.97;;;14.59;76.12
77023;BME280;65952;51.440;-2.054;2023-06-10T04:37:53;100004.94;;;14.68;75.90
77023;BME280;65952;51.440;-2.054;2023-06-10T04:40:19;100002.47;;;14.73;75.51
77023;BME280;65952;51.440;-2.054;2023-06-10T04:42:44;100003.97;;;14.75;75.24
77023;BME280;65952;51.440;-2.054;2023-06-10T04:45:10;100000.63;;;14.80;74.87
77023;BME280;65952;51.440;-2.054;2023-06-10T04:47:35;100012.66;;;14.71;74.83
77023;BME280;65952;51.440;-2.054;2023-06-10T04:50:01;100003.09;;;14.75;74.53
77023;BME280;65952;51.440;-2.054;2023-06-10T04:52:27;100013.53;;;14.85;74.11
77023;BME280;65952;51.440;-2.054;2023-06-10T04:54:53;100019.81;;;14.92;73.89
77023;BME280;65952;51.440;-2.054;2023-06-10T04:57:20;100021.09;;;15.09;72.99
77023;BME280;65952;51.440;-2.054;2023-06-10T04:59:46;100016.72;;;15.08;73.20
77023;BME280;65952;51.440;-2.054;2023-06-10T05:02:11;100017.91;;;14.99;73.18
77023;BME280;65952;51.440;-2.054;2023-06-10T05:04:37;100016.09;;;15.20;72.84
77023;BME280;65952;51.440;-2.054;2023-06-10T05:07:03;100010.69;;;15.20;72.73
77023;BME280;65952;51.440;-2.054;2023-06-10T05:09:29;100013.41;;;15.26;72.47
77023;BME280;65952;51.440;-2.054;2023-06-10T05:11:55;100013.59;;;15.11;73.14
77023;BME280;65952;51.440;-2.054;2023-06-10T05:14:21;100001.94;;;15.11;73.24
77023;BME280;65952;51.440;-2.054;2023-06-10T05:16:47;100002.56;;;15.13;72.98
77023;BME280;65952;51.440;-2.054;2023-06-10T05:19:13;100000.66;;;15.00;72.84
77023;BME280;65952;51.440;-2.054;2023-06-10T05:21:38;99998.13;;;14.78;74.25
77023;BME280;65952;51.440;-2.054;2023-06-10T05:24:04;99997.75;;;14.88;73.62
77023;BME280;65952;51.440;-2.054;2023-06-10T05:26:30;100007.31;;;14.98;73.02
77023;BME280;65952;51.440;-2.054;2023-06-10T05:28:57;99998.22;;;15.12;72.90
77023;BME280;65952;51.440;-2.054;2023-06-10T05:31:23;100001.94;;;15.11;72.80
77023;BME280;65952;51.440;-2.054;2023-06-10T05:33:49;99996.97;;;15.15;72.70
77023;BME280;65952;51.440;-2.054;2023-06-10T05:36:15;99993.44;;;15.48;71.40
77023;BME280;65952;51.440;-2.054;2023-06-10T05:38:40;99997.19;;;15.87;70.51
77023;BME280;65952;51.440;-2.054;2023-06-10T05:41:06;100007.41;;;15.85;70.15
77023;BME280;65952;51.440;-2.054;2023-06-10T05:43:31;100004.47;;;15.59;70.21
77023;BME280;65952;51.440;-2.054;2023-06-10T05:45:57;100009.03;;;15.66;70.29
77023;BME280;65952;51.440;-2.054;2023-06-10T05:48:22;100006.53;;;15.71;69.92
77023;BME280;65952;51.440;-2.054;2023-06-10T05:50:48;100005.28;;;15.93;69.30
77023;BME280;65952;51.440;-2.054;2023-06-10T05:53:15;100007.75;;;16.08;68.67
77023;BME280;65952;51.440;-2.054;2023-06-10T05:55:44;100002.47;;;16.34;67.80
77023;BME280;65952;51.440;-2.054;2023-06-10T05:58:11;100006.38;;;16.51;67.01
77023;BME280;65952;51.440;-2.054;2023-06-10T06:00:38;100005.78;;;16.95;65.69
77023;BME280;65952;51.440;-2.054;2023-06-10T06:03:08;100014.97;;;17.26;64.38
77023;BME280;65952;51.440;-2.054;2023-06-10T06:05:34;100016.28;;;17.48;63.41
77023;BME280;65952;51.440;-2.054;2023-06-10T06:08:06;100020.22;;;17.20;64.09
77023;BME280;65952;51.440;-2.054;2023-06-10T06:10:32;100024.75;;;17.33;63.69
77023;BME280;65952;51.440;-2.054;2023-06-10T06:12:58;100020.69;;;17.17;64.12
77023;BME280;65952;51.440;-2.054;2023-06-10T06:15:23;100021.69;;;16.78;65.36
77023;BME280;65952;51.440;-2.054;2023-06-10T06:17:49;100033.66;;;17.09;64.34
77023;BME280;65952;51.440;-2.054;2023-06-10T06:20:18;100028.53;;;17.26;63.70
77023;BME280;65952;51.440;-2.054;2023-06-10T06:22:44;100022.59;;;17.67;63.12
77023;BME280;65952;51.440;-2.054;2023-06-10T06:25:09;100030.53;;;18.68;61.37
77023;BME280;65952;51.440;-2.054;2023-06-10T06:27:34;100019.50;;;19.67;57.05
77023;BME280;65952;51.440;-2.054;2023-06-10T06:30:00;100024.28;;;20.71;53.55
77023;BME280;65952;51.440;-2.054;2023-06-10T06:32:25;100029.91;;;21.22;51.66
77023;BME280;65952;51.440;-2.054;2023-06-10T06:34:53;100025.25;;;21.23;51.85
77023;BME280;65952;51.440;-2.054;2023-06-10T06:37:23;100023.50;;;20.88;52.27
77023;BME280;65952;51.440;-2.054;2023-06-10T06:39:51;100020.78;;;20.88;52.24
77023;BME280;65952;51.440;-2.054;2023-06-10T06:42:17;100013.25;;;20.78;52.66
77023;BME280;65952;51.440;-2.054;2023-06-10T06:44:43;100021.91;;;20.75;52.32
77023;BME280;65952;51.440;-2.054;2023-06-10T06:47:08;100027.78;;;20.43;53.41
77023;BME280;65952;51.440;-2.054;2023-06-10T06:49:34;100023.78;;;21.32;51.50
77023;BME280;65952;51.440;-2.054;2023-06-10T06:52:00;100037.06;;;22.31;48.61
77023;BME280;65952;51.440;-2.054;2023-06-10T06:54:25;100047.84;;;22.37;47.79
77023;BME280;65952;51.440;-2.054;2023-06-10T06:56:51;100044.75;;;22.51;48.21
77023;BME280;65952;51.440;-2.054;2023-06-10T06:59:16;100035.50;;;23.61;44.90
77023;BME280;65952;51.440;-2.054;2023-06-10T07:01:45;100038.00;;;24.48;43.24
77023;BME280;65952;51.440;-2.054;2023-06-10T07:04:10;100030.59;;;25.43;41.16
77023;BME280;65952;51.440;-2.054;2023-06-10T07:06:36;100022.28;;;26.21;39.70
77023;BME280;65952;51.440;-2.054;2023-06-10T07:09:01;100030.88;;;27.19;38.36
77023;BME280;65952;51.440;-2.054;2023-06-10T07:11:27;100038.78;;;27.71;36.43
77023;BME280;65952;51.440;-2.054;2023-06-10T07:13:52;100037.19;;;28.48;35.17
77023;BME280;65952;51.440;-2.054;2023-06-10T07:16:17;100030.94;;;28.85;35.02
77023;BME280;65952;51.440;-2.054;2023-06-10T07:18:45;100026.13;;;29.48;33.52
77023;BME280;65952;51.440;-2.054;2023-06-10T07:21:11;100039.59;;;29.36;33.18
77023;BME280;65952;51.440;-2.054;2023-06-10T07:23:36;100040.13;;;29.00;33.92
77023;BME280;65952;51.440;-2.054;2023-06-10T07:26:01;100042.72;;;28.48;34.33
77023;BME280;65952;51.440;-2.054;2023-06-10T07:28:27;100037.88;;;27.81;36.00
77023;BME280;65952;51.440;-2.054;2023-06-10T07:30:52;100035.09;;;27.81;36.12
77023;BME280;65952;51.440;-2.054;2023-06-10T07:33:18;100046.94;;;27.86;35.87
77023;BME280;65952;51.440;-2.054;2023-06-10T07:35:43;100033.25;;;28.05;35.80
77023;BME280;65952;51.440;-2.054;2023-06-10T07:38:08;100037.13;;;28.29;34.90
77023;BME280;65952;51.440;-2.054;2023-06-10T07:40:34;100033.09;;;29.08;33.59
77023;BME280;65952;51.440;-2.054;2023-06-10T07:42:59;100021.53;;;29.06;33.57
77023;BME280;65952;51.440;-2.054;2023-06-10T07:45:25;100035.84;;;29.27;33.34
77023;BME280;65952;51.440;-2.054;2023-06-10T07:47:50;100036.81;;;28.54;35.19
77023;BME280;65952;51.440;-2.054;2023-06-10T07:50:16;100038.78;;;28.97;34.18
77023;BME280;65952;51.440;-2.054;2023-06-10T07:52:41;100040.53;;;28.45;34.71
77023;BME280;65952;51.440;-2.054;2023-06-10T07:55:07;100035.88;;;28.40;35.01
77023;BME280;65952;51.440;-2.054;2023-06-10T07:57:32;100046.59;;;28.47;34.62
77023;BME280;65952;51.440;-2.054;2023-06-10T08:00:02;100045.88;;;28.84;34.54
77023;BME280;65952;51.440;-2.054;2023-06-10T08:02:29;100036.75;;;29.41;33.77
77023;BME280;65952;51.440;-2.054;2023-06-10T08:04:55;100044.53;;;29.86;32.88
77023;BME280;65952;51.440;-2.054;2023-06-10T08:07:20;100040.84;;;29.77;32.27
77023;BME280;65952;51.440;-2.054;2023-06-10T08:09:45;100040.94;;;29.72;32.78
77023;BME280;65952;51.440;-2.054;2023-06-10T08:12:11;100027.81;;;29.96;32.20
77023;BME280;65952;51.440;-2.054;2023-06-10T08:14:36;100043.38;;;29.92;32.24
77023;BME280;65952;51.440;-2.054;2023-06-10T08:17:02;100032.84;;;30.22;31.76
77023;BME280;65952;51.440;-2.054;2023-06-10T08:19:30;100035.59;;;30.22;32.46
77023;BME280;65952;51.440;-2.054;2023-06-10T08:21:55;100041.31;;;30.82;31.16
77023;BME280;65952;51.440;-2.054;2023-06-10T08:24:21;100042.94;;;31.56;30.17
77023;BME280;65952;51.440;-2.054;2023-06-10T08:26:46;100033.44;;;31.48;29.78
77023;BME280;65952;51.440;-2.054;2023-06-10T08:29:12;100047.66;;;32.01;29.42
77023;BME280;65952;51.440;-2.054;2023-06-10T08:31:41;100055.78;;;31.97;29.23
77023;BME280;65952;51.440;-2.054;2023-06-10T08:34:07;100052.28;;;30.87;30.74
77023;BME280;65952;51.440;-2.054;2023-06-10T08:36:32;100068.53;;;30.24;31.99
77023;BME280;65952;51.440;-2.054;2023-06-10T08:38:58;100053.31;;;29.03;34.11
77023;BME280;65952;51.440;-2.054;2023-06-10T08:41:25;100068.19;;;28.64;34.50
77023;BME280;65952;51.440;-2.054;2023-06-10T08:44:07;100051.97;;;29.91;32.23
77023;BME280;65952;51.440;-2.054;2023-06-10T08:46:34;100045.97;;;30.72;32.59
77023;BME280;65952;51.440;-2.054;2023-06-10T08:49:04;100046.34;;;31.53;30.30
77023;BME280;65952;51.440;-2.054;2023-06-10T08:51:31;100051.31;;;31.42;29.98
77023;BME280;65952;51.440;-2.054;2023-06-10T08:54:16;100048.63;;;29.94;32.77
77023;BME280;65952;51.440;-2.054;2023-06-10T08:56:45;100040.19;;;30.83;32.14
77023;BME280;65952;51.440;-2.054;2023-06-10T08:59:13;100040.53;;;30.67;32.13
77023;BME280;65952;51.440;-2.054;2023-06-10T09:01:42;100038.38;;;31.28;31.10
77023;BME280;65952;51.440;-2.054;2023-06-10T09:04:08;100036.47;;;31.38;30.58
77023;BME280;65952;51.440;-2.054;2023-06-10T09:06:33;100030.81;;;29.81;32.75
77023;BME280;65952;51.440;-2.054;2023-06-10T09:09:01;100028.97;;;30.51;32.15
77023;BME280;65952;51.440;-2.054;2023-06-10T09:11:28;100024.03;;;30.62;32.30
77023;BME280;65952;51.440;-2.054;2023-06-10T09:13:53;100022.72;;;30.59;31.71
77023;BME280;65952;51.440;-2.054;2023-06-10T09:16:18;100022.72;;;30.96;31.52
77023;BME280;65952;51.440;-2.054;2023-06-10T09:18:45;100017.88;;;31.02;31.68
77023;BME280;65952;51.440;-2.054;2023-06-10T09:21:10;100023.81;;;30.72;31.93
77023;BME280;65952;51.440;-2.054;2023-06-10T09:23:37;100015.09;;;30.37;32.58
77023;BME280;65952;51.440;-2.054;2023-06-10T09:26:08;100024.44;;;30.27;33.03
77023;BME280;65952;51.440;-2.054;2023-06-10T09:28:33;100024.41;;;29.99;33.43
77023;BME280;65952;51.440;-2.054;2023-06-10T09:31:04;100021.88;;;30.03;34.45
77023;BME280;65952;51.440;-2.054;2023-06-10T09:33:31;100019.72;;;30.28;33.20
77023;BME280;65952;51.440;-2.054;2023-06-10T09:35:56;100017.56;;;29.31;35.01
77023;BME280;65952;51.440;-2.054;2023-06-10T09:38:29;100017.34;;;29.08;35.05
77023;BME280;65952;51.440;-2.054;2023-06-10T09:40:55;100016.06;;;29.86;33.86
77023;BME280;65952;51.440;-2.054;2023-06-10T09:43:22;100021.69;;;29.80;33.81
77023;BME280;65952;51.440;-2.054;2023-06-10T09:45:48;100018.00;;;29.71;35.14
77023;BME280;65952;51.440;-2.054;2023-06-10T09:48:14;100020.59;;;29.48;34.74
77023;BME280;65952;51.440;-2.054;2023-06-10T09:50:43;100014.19;;;30.00;33.87
77023;BME280;65952;51.440;-2.054;2023-06-10T09:53:10;100017.75;;;29.15;35.67
77023;BME280;65952;51.440;-2.054;2023-06-10T09:55:40;100002.19;;;29.58;36.61
77023;BME280;65952;51.440;-2.054;2023-06-10T09:58:06;100012.94;;;29.07;35.71
77023;BME280;65952;51.440;-2.054;2023-06-10T10:00:33;100013.88;;;29.16;35.84
77023;BME280;65952;51.440;-2.054;2023-06-10T10:02:59;99996.50;;;29.16;36.79
77023;BME280;65952;51.440;-2.054;2023-06-10T10:05:25;100002.50;;;28.61;36.84
77023;BME280;65952;51.440;-2.054;2023-06-10T10:07:51;100015.38;;;28.70;36.77
77023;BME280;65952;51.440;-2.054;2023-06-10T10:10:18;100007.09;;;28.90;36.73
77023;BME280;65952;51.440;-2.054;2023-06-10T10:12:50;99999.25;;;28.34;38.43
77023;BME280;65952;51.440;-2.054;2023-06-10T10:15:17;100006.34;;;28.84;37.10
77023;BME280;65952;51.440;-2.054;2023-06-10T10:17:48;99999.63;;;27.98;39.04
77023;BME280;65952;51.440;-2.054;2023-06-10T10:20:18;100007.25;;;28.12;38.56
77023;BME280;65952;51.440;-2.054;2023-06-10T10:22:46;99997.56;;;28.58;37.77
77023;BME280;65952;51.440;-2.054;2023-06-10T10:25:25;99993.13;;;29.00;36.80
77023;BME280;65952;51.440;-2.054;2023-06-10T10:28:12;100003.25;;;28.66;37.41
77023;BME280;65952;51.440;-2.054;2023-06-10T10:30:51;99998.03;;;28.65;38.02
77023;BME280;65952;51.440;-2.054;2023-06-10T10:33:36;100000.88;;;28.98;37.64
77023;BME280;65952;51.440;-2.054;2023-06-10T10:36:06;99994.28;;;28.56;37.30
77023;BME280;65952;51.440;-2.054;2023-06-10T10:38:33;100000.97;;;28.30;38.08
77023;BME280;65952;51.440;-2.054;2023-06-10T10:41:00;99993.94;;;29.00;36.98
77023;BME280;65952;51.440;-2.054;2023-06-10T10:43:28;100003.50;;;28.89;37.21
77023;BME280;65952;51.440;-2.054;2023-06-10T10:46:09;100000.69;;;29.32;37.19
77023;BME280;65952;51.440;-2.054;2023-06-10T10:48:40;100004.25;;;28.51;38.34
77023;BME280;65952;51.440;-2.054;2023-06-10T10:51:09;100011.81;;;28.46;38.49
77023;BME280;65952;51.440;-2.054;2023-06-10T10:53:34;100007.81;;;28.09;40.02
77023;BME280;65952;51.440;-2.054;2023-06-10T10:56:04;100007.09;;;28.90;38.21
77023;BME280;65952;51.440;-2.054;2023-06-10T10:58:29;100002.09;;;29.30;37.56
77023;BME280;65952;51.440;-2.054;2023-06-10T11:00:55;99997.81;;;29.38;37.25
77023;BME280;65952;51.440;-2.054;2023-06-10T11:03:20;100002.19;;;29.58;38.02
77023;BME280;65952;51.440;-2.054;2023-06-10T11:05:47;100002.72;;;29.41;36.77
77023;BME280;65952;51.440;-2.054;2023-06-10T11:10:58;99992.75;;;29.92;36.98
77023;BME280;65952;51.440;-2.054;2023-06-10T11:13:25;99999.72;;;29.89;38.10
77023;BME280;65952;51.440;-2.054;2023-06-10T11:15:51;99989.97;;;30.20;36.80
77023;BME280;65952;51.440;-2.054;2023-06-10T11:18:27;99998.19;;;29.97;36.07
77023;BME280;65952;51.440;-2.054;2023-06-10T11:20:55;100003.13;;;29.81;37.25
77023;BME280;65952;51.440;-2.054;2023-06-10T11:23:40;99996.28;;;29.78;36.69
77023;BME280;65952;51.440;-2.054;2023-06-10T11:26:44;99987.88;;;29.83;37.59
77023;BME280;65952;51.440;-2.054;2023-06-10T11:29:09;99988.34;;;30.19;36.39
77023;BME280;65952;51.440;-2.054;2023-06-10T11:31:46;99986.25;;;29.82;36.69
77023;BME280;65952;51.440;-2.054;2023-06-10T11:34:14;99983.91;;;30.45;36.80
77023;BME280;65952;51.440;-2.054;2023-06-10T11:36:45;99988.75;;;30.26;36.38
77023;BME280;65952;51.440;-2.054;2023-06-10T11:39:11;99982.63;;;30.29;36.66
77023;BME280;65952;51.440;-2.054;2023-06-10T11:41:38;99988.50;;;31.15;35.90
77023;BME280;65952;51.440;-2.054;2023-06-10T11:46:30;99984.41;;;31.89;35.55
77023;BME280;65952;51.440;-2.054;2023-06-10T11:48:57;99982.47;;;32.38;34.89
77023;BME280;65952;51.440;-2.054;2023-06-10T11:51:28;99979.28;;;32.80;32.75
77023;BME280;65952;51.440;-2.054;2023-06-10T11:53:54;99973.34;;;32.47;33.19
77023;BME280;65952;51.440;-2.054;2023-06-10T11:56:21;99979.63;;;31.81;34.64
77023;BME280;65952;51.440;-2.054;2023-06-10T11:58:55;99978.53;;;31.36;35.69
77023;BME280;65952;51.440;-2.054;2023-06-10T12:01:23;99981.88;;;31.70;35.92
77023;BME280;65952;51.440;-2.054;2023-06-10T12:04:05;99975.56;;;31.87;34.65
77023;BME280;65952;51.440;-2.054;2023-06-10T12:06:58;99977.59;;;32.04;34.64
77023;BME280;65952;51.440;-2.054;2023-06-10T12:09:25;99980.53;;;31.44;35.08
77023;BME280;65952;51.440;-2.054;2023-06-10T12:11:59;99969.88;;;31.92;34.19
77023;BME280;65952;51.440;-2.054;2023-06-10T12:14:50;99971.03;;;32.49;33.39
77023;BME280;65952;51.440;-2.054;2023-06-10T12:17:17;99966.16;;;32.54;33.34
77023;BME280;65952;51.440;-2.054;2023-06-10T12:19:42;99970.47;;;32.96;33.10
77023;BME280;65952;51.440;-2.054;2023-06-10T12:22:08;99961.97;;;32.92;32.75
77023;BME280;65952;51.440;-2.054;2023-06-10T12:24:43;99969.59;;;32.60;32.98
77023;BME280;65952;51.440;-2.054;2023-06-10T12:27:12;99962.56;;;32.63;32.57
77023;BME280;65952;51.440;-2.054;2023-06-10T12:29:38;99968.78;;;32.60;31.97
77023;BME280;65952;51.440;-2.054;2023-06-10T12:32:04;99972.75;;;32.18;32.34
77023;BME280;65952;51.440;-2.054;2023-06-10T12:34:36;99967.59;;;30.58;35.12
77023;BME280;65952;51.440;-2.054;2023-06-10T12:37:05;99969.63;;;30.66;35.69
77023;BME280;65952;51.440;-2.054;2023-06-10T12:39:32;99972.50;;;31.11;35.28
77023;BME280;65952;51.440;-2.054;2023-06-10T12:41:59;99971.59;;;31.48;34.56
77023;BME280;65952;51.440;-2.054;2023-06-10T12:44:35;99961.59;;;31.69;33.63
77023;BME280;65952;51.440;-2.054;2023-06-10T12:47:09;99959.19;;;31.22;34.80
77023;BME280;65952;51.440;-2.054;2023-06-10T12:49:36;99956.44;;;31.76;34.46
77023;BME280;65952;51.440;-2.054;2023-06-10T12:52:02;99958.91;;;31.87;34.36
77023;BME280;65952;51.440;-2.054;2023-06-10T12:54:28;99944.72;;;32.46;33.14